woensdag 22 augustus 2018 | Home | Bestenlijsten | Bestenlijsten NL | Calculator eindtijd | Nieuws | Uitslagen | Videos | Wedstrijden | VZA Ranglijsten | Weer |
 
 
Recent nieuws meer nieuws
20-08: Strijd verwacht bij Stratenloop Kapelle
07-08: Verwarring over wedstrijden
28-07: Jullie lopen te snel ( of te langzaam )? Vervolg.
20-07: Jullie lopen te snel?
12-07: De gehoorzame volgzame hardloper
26-06: Veranderingen stratenloopcircuit
Wedstrijdagenda meer wedstrijden
vr 24-08: Hardloop3Daagse Ritthem
vr 24-08: 9e Kapelsedag Loop Kapelle-Biezelinge
za 25-08: Potatorun Axel
za 25-08: 32e Halve Marathon Westenschouwen
zo 26-08: Lamsorenloop Lamswaarde
wo 29-08: Kreekloop Terneuzen
vr 31-08: Track Meeting Utrecht
za 01-09: 12e Kustloop Vrouwenpolder
zo 02-09: 30e Tilburg Ten Miles
za 08-09: d'Ossekoppenloop Ossenisse
za 08-09: 43e Run Winschoten
za 08-09: Avondbaanwedstrijd Hulst
vr 14-09: 23e Stadsloop Goes
za 15-09: Bosse Pielenloop Vogelwaarde
za 15-09: 15e Tielemanloop Middelharnis
vr 21-09: Vaart van Vlissingen
za 22-09: Bamisrun Kloosterzande
zo 23-09: 2e Kraaieloop Lewedorp
zo 23-09: 34e Dam tot Damloop Amsterdam
Recente uitslagen meer uitslagen
za 11-08: 15 van Wolphaartsdijk (111)
di 07-08: 6e Zomerloop Zuidzande
vr 03-08: 34e Strandloop Ouddorp
wo 01-08: 81e Boulevardloop Vlissingen (277)
di 31-07: 5e Zomerloop Nieuwvliet (144)
wo 25-07: 35e Bokaalloop Burgh-Haamstede (140)
wo 18-07: 39e Stratenloop Westkapelle (161)
di 17-07: 3e Zomerloop Retranchement (102)
wo 11-07: 8e Sportvissersloop Yerseke (236)
di 10-07: 2e Zomerloop Cadzand-Bad (46)
 
Zoek tenminste met 3 tekens van wedstrijd, datum, plaats of atleet
4e Zomerloop
Groede, dinsdag 24 juli 2018 - Organisatie: Wielingen
6.6 km
PltsNaam
Tijdkm/umin/km
1  Martijn de KokHeinkenszand22.40M35   17.471  3:26
2  Bart VerbekeStasegem23.17Mse   17.008  3:32
3  Mark VerhageZaamslag23.25Mse   16.911  3:33
4  Sander d'HontKuitaart23.26Mse   16.899  3:33
5  Bert van de VeldeBassevelde23.32Mse   16.827  3:34
6  Angelo van NevelZedelgem25.07Mse   15.766  3:48
7  Martijn KoxWestdorpe25.22M40   15.611  3:51
8  Joos PauwelKleit25.49Mse   15.339  3:55
9  Emardo de RijckSint Jansteen26.01Mse   15.221  3:57
10  Endy SlockAxel26.03M40   15.202  3:57
11  Francois van de BroeckeBreskens27.02M50   14.649  4:06
12  Davy ProvoOostburg27.13Mse   14.550  4:07
13  Tommy de SmetTerneuzen27.19Mse   14.497  4:08
14  Peter DryepondtDudzele27.33Mse   14.374  4:10
15  Leo BrackeAxel27.43Mse   14.287  4:12
16  Patrick van MorrelgemSluis27.51Mse   14.219  4:13
17  Marnix van den BrandeTerneuzen28.03Mse   14.118  4:15
18  Menno den DekkerTerneuzen28.04Mse   14.109  4:15
19  Koen HamelinkNieuwvliet28.24Mse   13.944  4:18
20  V. DellaertGroede28.32Mse   13.879  4:19
21  Niek van BelzenMiddelburg28.33M50   13.870  4:20
22  Paul DuurlandBavel28.41Mse   13.806  4:21
23  Jaap van der VeenTerneuzen29.12M50   13.562  4:25
24  David MestdaghSint-Michiels29.36Mse   13.378  4:29
25  Jasper GoudenaOudewater30.07Mse   13.149  4:34
26  Twan TimmermansHoofdplaat30.17Mse   13.076  4:35
27  Johan de FeijterOostburg30.22Mse   13.041  4:36
28  Nico SchilleDuitsland30.36Mse   12.941  4:38
29  Arno van den HemelGroede30.39Mse   12.920  4:39
30  Simon de FeijterBreskens30.40Mse   12.913  4:39
31  David MullaertBiervliet30.41Mse   12.906  4:39
32  Aafje van RemoortereBiervliet30.45Vse   12.878  4:40
33  Edwin de la RuelleKoewacht30.56M50   12.802  4:41
34  Luc RottiersHamme31.02Mse   12.760  4:42
35  Coen DekkerZaamslag31.21Mse   12.632  4:45
36  Pieter- Jan LanderwynOostburg31.25Mse   12.605  4:46
37  Anoucha BauteKaprijke31.27Vse   12.591  4:46
38  Griet van HeddeghemBavegem31.46Vse   12.466  4:49
39  Bjorn BertrandSittard31.48Mse   12.453  4:49
40  Kurt de MuytDamme32.02Mse   12.362  4:51
41  Floris HuighSchoondijke32.05Mse   12.343  4:52
42  Edwin RiemensAxel32.10Mse   12.311  4:52
43  Ebe BlaauwTerneuzen32.15M60   12.279  4:53
44  Roman Boeffgen32.30Mse   12.185  4:55
45  Evelien de VisserIJzendijke32.50Vse   12.061  4:58
46  Eric TissinkZaamslag32.53Mse   12.043  4:59
47  Rini FenijnNieuwvliet32.59Mse   12.006  5:00
48  Rob TheijssenVught33.16Mse   11.904  5:02
49  Els BruylandtBerlare33.21Vse   11.874  5:03
50  Emanuela BrackeAxel34.02Vse   11.636  5:09
51  Bram GoethalsSchoondijke34.12Mse   11.579  5:11
52  Leon MartinDuitsland34.19Mse   11.540  5:12
53  Anne- Marie ThomaesHoofdplaat34.26Vse   11.500  5:13
54  Stephan van BerkelTilburg34.40Mse   11.423  5:15
55  Miriam van NoordenSint-Laureins34.49Vse   11.374  5:17
56  Anne-Mie DepreitereMoerkerke35.43Vse   11.087  5:25
57  Pol van de VijverKoewacht35.44Mse   11.082  5:25
58  Johnny DoomsTerneuzen35.46M65   11.072  5:25
59  Anniek de RijckSint Jansteen35.58Vse   11.010  5:27
60  Marc van der MaleAxel35.58Mse   11.010  5:27
61  Rudie HogervorstAardenburg36.02M50   10.990  5:28
62  Michel de MeijerCadzand36.30Mse   10.849  5:32
63  Sabine HerremerreKnokke36.42Vse   10.790  5:34
64  Jan de JongeDriewegen37.58Mse   10.430  5:45
65  Arsene van LaekenAssenede38.41Mse   10.237  5:52
66  Cindy DijkersBiervliet38.57Vse   10.167  5:54
67  Annemieke RijnbergZuidzande38.57V50   10.167  5:54
68  Dorien VasseurOostburg39.14Vse   10.093  5:57
69  Yara Roels???39.22Vse   10.059  5:58
70  Rik van SchuurOostburg39.54M70   9.925  6:03
71  Cecile MullaertBiervliet40.06Vse   9.875  6:05
72  Nicole van PamelenTerneuzen41.18Vse   9.588  6:15
Mannen: 55 (76.39%) => M35=1 - M40=2 - M50=5 - M60=1 - M65=1 - M70=1 - Mse=44
Vrouwen: 17 (23.61%) => V50=1 - Vse=16

Overzicht Top3, winnares en aantal deelnemers in eerdere jaren

JaarWinnaarTijd2eTijd 3eTijdWinnaresTijd#
2018Martijn de Kok22:40Bart Verbeke23:17Mark Verhage23:25Aafje van Remoortere30:4572
2017Mauro Schoors24:25Joos Pauwel24:56Kevin Strubbe25:17Lise Mussely29:3650
2015Stein Vuyck22:06Theo Rabout24:06Sander d'Hont24:11Shani Rijsdijk32:0775

3.3 km
PltsNaam
Tijdkm/umin/km
1  Mauro SchoorsKaprijke11.16Mse   17.574  3:25
2  Rowin SmekensSchoondijke11.27Mse   17.293  3:28
3  Gino van BroeckTemse11.31Mse   17.192  3:29
4  Matti BuysseStekene11.40Mse   16.971  3:32
5  Marnix ScheeleOostburg12.03Mse   16.432  3:39
6  Bart van den HemelGroede12.37Mse   15.694  3:49
7  Peter DelenWiesbeke12.48Mse   15.469  3:53
8  Shanaya SchollaertBlankenberge13.03Vse   15.172  3:57
9  Sylvie ClaessensSinaai Waas13.20Vse   14.850  4:02
10  Marco MoerlandArnemuiden13.37Mse   14.541  4:08
11  Marvin CornelisHoofdplaat14.16Mse   13.879  4:19
12  Ricky VerkruijsseGroede14.31Mse   13.639  4:24
13  Hedy VersluysOostburg14.40Vse   13.500  4:27
14  Arjen ScheeleOostburg14.59Mse   13.215  4:32
15  Jordy MichielsenNieuwvliet15.43Mse   12.598  4:46
16  Ilona DielemanNieuwvliet16.16Vse   12.172  4:56
17  Niek DikkerEede16.18Mse   12.147  4:56
18  Kees van BaalOostburg16.19Mse   12.135  4:57
19  Jacqueline MaesZuidzande16.24Vse   12.073  4:58
20  Jan-Piet FlikweertOostburg16.25Mse   12.061  4:58
21  Steven SlockAxel16.40Mse   11.880  5:03
22  Tycho van BaalOostburg16.47Mse   11.797  5:05
23  Vincent KeymelBreskens17.28Mse   11.336  5:18
24  Tonny van MulkenBreskens17.42M60   11.186  5:22
25  Laura HermansOostburg17.47Vse   11.134  5:23
26  Luuk van MorrelgemSluis17.49Mse   11.113  5:24
27  Wendy v.d. VeldeHoofdplaat17.52Vse   11.082  5:25
28  Katrien VervarckeDamme17.56Vse   11.041  5:26
29  Ineke van MorrelgemSluis18.10Vse   10.899  5:30
30  Daan DielemanZaamslag18.21Mse   10.790  5:34
31  Sjaak OosterlingBreskens18.24M65   10.761  5:35
32  Carla ZegersKoewacht18.28V45   10.722  5:36
33  Daisy van de VeldeOostburg18.43Vse   10.579  5:40
34  Roel De ScheemaekerBassevelde19.02Mse   10.403  5:46
35  Marieke de ClerckGroede19.20Vse   10.241  5:52
36  Ignace Van NevelMaldegem19.36Mse   10.102  5:56
37  Claudia GhijselsBreskens19.59Vse   9.908  6:03
38  Willem van VugtIJzendijke21.35Mse   9.174  6:32
Mannen: 25 (65.79%) => M60=1 - M65=1 - Mse=23
Vrouwen: 13 (34.21%) => V45=1 - Vse=12

Snelheid en tempo zijn berekend op de vermelde afstand. Bij een onjuiste afstand wijken deze uiteraard af!

Fouten melden via info@atletiekzeeland.nl Categorie fout? Mail dan geboortedatum. (geldt alleen voor Zeeuwen)

De server had 0.105 seconden nodig om deze lijst met 110 prestaties samen te stellen.

Terug naar boven

Vorige uitslagen
DatumWedstrijdPlaatsVereniging Hits
10-07-2018 2e ZomerloopCadzand-BadWielingen0
07-08-2018 6e ZomerloopZuidzandeWielingen0
03-07-2018 1e ZomerloopIJzendijkeWielingen0
31-07-2018 5e ZomerloopNieuwvlietWielingen0
17-07-2018 3e ZomerloopRetranchementWielingen0
08-08-2017 5e ZomerloopNieuwvlietWielingen0
25-07-2017 3e ZomerloopRetranchementWielingen0
18-07-2017 2e ZomerloopCadzandWielingen0
01-08-2017 4e ZomerloopGroedeWielingen0
15-08-2017 6e ZomerloopZuidzandeWielingen0
28-07-2015 3e ZomerloopNieuwvlietWielingen506
04-08-2015 4e ZomerloopZuidzandeWielingen616
14-07-2015 1e ZomerloopRetranchementWielingen441
21-07-2015 2e ZomerloopGroedeWielingen654
11-08-2015 5e ZomerloopCadzandWielingen689
09-07-2013 ZomerloopRetranchementWielingen1281
10-07-2012 2e ZomerloopGroedeWielingen1245
03-07-2012 ZomerloopRetranchementWielingen1398
17-07-2012 3e ZomerloopNieuwvlietWielingen1365
24-07-2012 4e ZomerloopZuidzandeWielingen1244
05-07-2011 ZomerloopRetranchementWielingen1258
26-07-2011 4e ZomerloopZuidzandeWielingen1823
28-07-2009 4e ZomerloopZuidzandeWielingen1737
21-07-2009 3e ZomerloopNieuwvlietWielingen1741
04-08-2009 5e ZomerloopCadzand-BadWielingen1858
14-07-2009 2e ZomerloopGroedeWielingen1474
07-07-2009 ZomerloopRetranchementWielingen1237
15-07-2008 2e ZomerloopGroedeWielingen1412
08-07-2008 ZomerloopRetranchementWielingen1497
29-07-2008 4e ZomerloopZuidzandeWielingen1440
22-07-2008 3e ZomerloopNieuwvlietWielingen1508

 
Laatste reactie:
Danny Meeus: Verwarring Over Wedstrijden..
Recente Zeeuwse prestaties meer prestaties
18-08: Memorial Jos Verstockt Lier (2)
5000 m Job de Feijter (PR)15.23.36  Mse
800 m Paavo de Leng (PR 2.03.76)2.04.95  JoB
17-08: 4e Goes on Track (45)
15-08: We All Love Running Zomergem (4)
08-08: Internationale meeting Sint-Niklaas (3)
04-08: Meeting voor Mon Kessel-Lo (2)
03-08: Track Meeting Utrecht (7)
28-07: Memorial Rasschaert Ninove (2)
14-07: Guldensporenmeeting Kortrijk (2)
13-07: Track Meeting Utrecht (2)
11-07: Gouden 3000m Ertvelde (2)
07-07: Chaamloop (2)
07-07: Arena Games Hilversum (3)
05-07: Track Meeting Rotterdam (3)
01-07: Internationaal Antwerps Atletiekgala Merksem (5)
30-06: Brussels Grand Prix (1)
24-06: 35e Halve Marathon Roosendaal (104)
24-06: NK baan Senioren Utrecht (10)
24-06: Grote Prijs Lokeren (4)
Atletiek Zeeland © 2018